Time;durP1;ratioP1;P1;durP2;ratioP2;P2;SDS_P1;SDS_P2;PMS_P1;PMS_P2;Temp;Humidity;BMP_temperature;BMP_pressure;BME280_temperature;BME280_humidity;BME280_pressure;Samples;Min_cycle;Max_cycle;Signal;HPM_P1;HPM_P2
2021/12/14 00:02:08;;;;;;;34.83;21.60;;;8.90;99.90;;;;;;5012089;28;20380;-55
2021/12/14 00:04:35;;;;;;;33.20;21.15;;;8.90;99.90;;;;;;5012158;28;20487;-57
2021/12/14 00:07:06;;;;;;;39.22;21.85;;;8.90;99.90;;;;;;5010469;28;20050;-57
2021/12/14 00:09:35;;;;;;;35.80;20.85;;;8.90;99.90;;;;;;5012313;28;20111;-56
2021/12/14 00:15:16;;;;;;;31.50;20.33;;;8.90;99.90;;;;;;4978469;28;20037;-55
2021/12/14 00:17:47;;;;;;;33.20;21.20;;;8.80;99.90;;;;;;5012721;28;20037;-56
2021/12/14 00:20:24;;;;;;;36.03;22.00;;;8.90;99.90;;;;;;5014753;28;20053;-54
2021/12/14 00:25:23;;;;;;;37.58;21.08;;;8.80;99.90;;;;;;5012099;28;20018;-56
2021/12/14 00:27:48;;;;;;;34.40;20.83;;;8.90;99.90;;;;;;5011607;28;20045;-55
2021/12/14 00:30:15;;;;;;;39.75;21.08;;;8.80;99.90;;;;;;5011314;28;20026;-56
2021/12/14 00:32:41;;;;;;;34.72;21.52;;;8.80;99.90;;;;;;5009932;28;20026;-54
2021/12/14 00:35:12;;;;;;;35.20;20.17;;;8.80;99.90;;;;;;5010631;28;20132;-54
2021/12/14 00:37:42;;;;;;;37.78;21.98;;;8.90;99.90;;;;;;4992336;28;20023;-55
2021/12/14 00:40:37;;;;;;;36.13;21.65;;;8.80;99.90;;;;;;4999576;28;20129;-57
2021/12/14 00:43:05;;;;;;;36.88;21.77;;;8.90;99.90;;;;;;5002148;28;20069;-54
2021/12/14 00:45:33;;;;;;;37.53;21.20;;;8.90;99.90;;;;;;5011400;28;20022;-56
2021/12/14 00:47:59;;;;;;;32.53;20.20;;;8.90;99.90;;;;;;5010437;28;20063;-55
2021/12/14 00:50:28;;;;;;;35.33;21.13;;;8.80;99.90;;;;;;5011084;28;20412;-56
2021/12/14 00:52:54;;;;;;;33.40;20.48;;;8.90;99.90;;;;;;5006882;28;20030;-56
2021/12/14 00:55:25;;;;;;;36.88;21.10;;;8.90;99.90;;;;;;5011448;28;20038;-58
2021/12/14 00:57:52;;;;;;;35.90;20.93;;;8.80;99.90;;;;;;5010339;28;20052;-56
2021/12/14 01:00:22;;;;;;;32.95;20.40;;;8.90;99.90;;;;;;5011293;28;20034;-55
2021/12/14 01:02:48;;;;;;;37.72;21.10;;;8.90;99.90;;;;;;5009405;28;20022;-54
2021/12/14 01:05:25;;;;;;;37.55;21.23;;;8.80;99.90;;;;;;5011310;28;20055;-54
2021/12/14 01:07:51;;;;;;;37.45;21.63;;;8.80;99.90;;;;;;5010183;28;20435;-57
2021/12/14 01:10:27;;;;;;;37.85;21.75;;;8.80;99.90;;;;;;5010997;28;20038;-52
2021/12/14 01:12:58;;;;;;;36.40;20.98;;;8.80;99.90;;;;;;5009784;28;20456;-54
2021/12/14 01:15:42;;;;;;;42.97;22.75;;;8.80;99.90;;;;;;5011065;28;20034;-54
2021/12/14 01:18:35;;;;;;;36.95;21.88;;;8.80;99.90;;;;;;5009061;28;20030;-56
2021/12/14 01:21:19;;;;;;;37.05;21.63;;;8.80;99.90;;;;;;5005160;28;20034;-55
2021/12/14 01:23:46;;;;;;;35.78;21.60;;;8.80;99.90;;;;;;5002019;28;20032;-55
2021/12/14 01:26:18;;;;;;;33.63;21.42;;;8.80;99.90;;;;;;5010206;28;20034;-56
2021/12/14 01:28:45;;;;;;;39.65;21.75;;;8.80;99.90;;;;;;5009829;28;20034;-55
2021/12/14 01:31:26;;;;;;;37.42;22.77;;;8.80;99.90;;;;;;5010803;28;20161;-57
2021/12/14 01:33:55;;;;;;;38.70;21.05;;;8.80;99.90;;;;;;5007278;28;20037;-58
2021/12/14 01:36:26;;;;;;;33.75;20.75;;;8.80;99.90;;;;;;5010837;28;20030;-54
2021/12/14 01:39:11;;;;;;;37.75;20.77;;;8.80;99.90;;;;;;5009364;28;20030;-54
2021/12/14 01:41:39;;;;;;;39.63;21.25;;;8.80;99.90;;;;;;5001805;28;20117;-57
2021/12/14 01:44:05;;;;;;;37.53;22.17;;;8.80;99.90;;;;;;5007340;28;20080;-53
2021/12/14 01:46:38;;;;;;;34.40;20.70;;;8.80;99.90;;;;;;5010263;28;20032;-56
2021/12/14 01:49:07;;;;;;;36.45;20.95;;;8.80;99.90;;;;;;5009011;28;20045;-54
2021/12/14 01:51:38;;;;;;;35.63;21.70;;;8.80;99.90;;;;;;5010180;28;20030;-56
2021/12/14 01:54:06;;;;;;;34.67;19.80;;;8.90;99.90;;;;;;5005308;28;20033;-55
2021/12/14 01:56:33;;;;;;;36.90;22.08;;;8.90;99.90;;;;;;5009412;28;20029;-52
2021/12/14 01:59:14;;;;;;;35.92;21.65;;;8.90;99.90;;;;;;5009894;28;20038;-55
2021/12/14 02:01:54;;;;;;;37.88;20.65;;;8.80;99.90;;;;;;5009394;28;20030;-55
2021/12/14 02:04:23;;;;;;;38.53;21.88;;;8.90;99.90;;;;;;5009080;28;20468;-56
2021/12/14 02:06:56;;;;;;;36.95;21.23;;;8.90;99.90;;;;;;5008712;28;20026;-55
2021/12/14 02:09:23;;;;;;;;;;;8.80;99.90;;;;;;5003706;28;20030;-55
2021/12/14 02:11:52;;;;;;;33.10;20.30;;;8.80;99.90;;;;;;5009011;28;19913;-53
2021/12/14 02:14:19;;;;;;;34.33;19.83;;;8.80;99.90;;;;;;5009771;28;20094;-52
2021/12/14 02:16:53;;;;;;;36.22;19.98;;;8.90;99.90;;;;;;5009229;28;20049;-54
2021/12/14 02:19:19;;;;;;;35.88;20.95;;;8.90;99.90;;;;;;5009867;28;20488;-54
2021/12/14 02:21:47;;;;;;;40.20;20.55;;;8.90;99.90;;;;;;5008495;28;20088;-55
2021/12/14 02:24:19;;;;;;;33.00;20.27;;;8.90;99.90;;;;;;5007202;28;20037;-55
2021/12/14 02:26:46;;;;;;;33.63;20.38;;;8.80;99.90;;;;;;5004499;28;20018;-53
2021/12/14 02:29:25;;;;;;;37.03;20.17;;;8.80;99.90;;;;;;5008299;28;20049;-56
2021/12/14 02:31:54;;;;;;;39.58;21.17;;;8.90;99.90;;;;;;5008746;28;20030;-53
2021/12/14 02:34:19;;;;;;;40.65;21.45;;;8.90;99.90;;;;;;5009521;28;20049;-55
2021/12/14 02:36:48;;;;;;;35.22;20.98;;;8.90;99.90;;;;;;5009258;28;20046;-52
2021/12/14 02:39:46;;;;;;;34.58;18.80;;;8.90;99.90;;;;;;5008998;28;20438;-53
2021/12/14 02:42:15;;;;;;;34.58;20.15;;;8.90;99.90;;;;;;5001348;28;20448;-55
2021/12/14 02:44:44;;;;;;;35.60;21.25;;;8.90;99.90;;;;;;5007706;28;20128;-55
2021/12/14 02:47:13;;;;;;;33.58;20.35;;;8.80;99.90;;;;;;5009958;28;20117;-53
2021/12/14 02:49:40;;;;;;;36.00;21.13;;;8.90;99.90;;;;;;5008982;28;20065;-53
2021/12/14 02:52:10;;;;;;;39.60;21.25;;;8.90;99.90;;;;;;5009245;28;20054;-55
2021/12/14 02:54:45;;;;;;;33.20;19.48;;;8.90;99.90;;;;;;5013599;28;20030;-52
2021/12/14 02:57:18;;;;;;;34.10;20.77;;;8.90;99.90;;;;;;5009217;28;20598;-55
2021/12/14 02:59:47;;;;;;;35.92;20.52;;;8.80;99.90;;;;;;5012765;28;20041;-53
2021/12/14 03:02:17;;;;;;;35.05;20.42;;;8.80;99.90;;;;;;5013151;28;20026;-54
2021/12/14 03:04:49;;;;;;;34.13;20.15;;;8.80;99.90;;;;;;5011262;28;20040;-55
2021/12/14 03:07:16;;;;;;;33.78;20.80;;;8.80;99.90;;;;;;5013265;28;20026;-54
2021/12/14 03:12:19;;;;;;;35.30;21.02;;;8.80;99.90;;;;;;5006022;28;20480;-53
2021/12/14 03:14:59;;;;;;;33.20;20.27;;;8.80;99.90;;;;;;5012555;28;20443;-55
2021/12/14 03:17:25;;;;;;;39.03;20.88;;;8.80;99.90;;;;;;5011729;28;20046;-55
2021/12/14 03:20:01;;;;;;;35.60;21.38;;;8.70;99.90;;;;;;5012420;28;20053;-54
2021/12/14 03:22:38;;;;;;;37.15;22.08;;;8.80;99.90;;;;;;5011428;28;20543;-53
2021/12/14 03:25:05;;;;;;;39.05;20.73;;;8.70;99.90;;;;;;5012593;28;20416;-54
2021/12/14 03:27:31;;;;;;;32.88;20.65;;;8.70;99.90;;;;;;5010028;28;20041;-52
2021/12/14 03:29:57;;;;;;;33.13;19.95;;;8.80;99.90;;;;;;5007969;28;20464;-55
2021/12/14 03:32:23;;;;;;;32.72;20.48;;;8.80;99.90;;;;;;5009904;28;20040;-53
2021/12/14 03:34:49;;;;;;;36.72;20.13;;;8.70;99.90;;;;;;5012362;28;20034;-53
2021/12/14 03:37:24;;;;;;;34.50;19.92;;;8.80;99.90;;;;;;5012153;28;20048;-51
2021/12/14 03:39:53;;;;;;;36.20;20.67;;;8.80;99.90;;;;;;5012527;28;20116;-52
2021/12/14 03:42:25;;;;;;;33.15;20.60;;;8.70;99.90;;;;;;5011281;28;20044;-52
2021/12/14 03:44:55;;;;;;;38.28;20.90;;;8.70;99.90;;;;;;4999322;28;20030;-50
2021/12/14 03:47:32;;;;;;;33.40;19.98;;;8.70;99.90;;;;;;5009412;28;20068;-53
2021/12/14 03:50:05;;;;;;;34.10;19.67;;;8.70;99.90;;;;;;5011754;28;20117;-51
2021/12/14 03:52:35;;;;;;;33.67;20.67;;;8.70;99.90;;;;;;5011255;28;20034;-54
2021/12/14 03:55:07;;;;;;;36.15;20.27;;;8.70;99.90;;;;;;5011305;28;20034;-54
2021/12/14 03:57:33;;;;;;;34.80;19.40;;;8.70;99.90;;;;;;5012612;28;20026;-50
2021/12/14 03:59:59;;;;;;;31.63;19.48;;;8.70;99.90;;;;;;5011895;28;20352;-51
2021/12/14 04:02:24;;;;;;;34.72;19.90;;;8.70;99.90;;;;;;5010867;28;20030;-53
2021/12/14 04:05:01;;;;;;;32.28;20.58;;;8.70;99.90;;;;;;5010248;28;20037;-51
2021/12/14 04:07:27;;;;;;;31.40;20.13;;;8.70;99.90;;;;;;5012117;28;20034;-54
2021/12/14 04:09:53;;;;;;;33.50;19.30;;;8.70;99.90;;;;;;5010898;28;20042;-52
2021/12/14 04:12:20;;;;;;;37.78;21.38;;;8.60;99.90;;;;;;5011601;28;20109;-53
2021/12/14 04:14:55;;;;;;;36.28;20.60;;;8.60;99.90;;;;;;5008425;28;20029;-54
2021/12/14 04:17:23;;;;;;;37.78;21.08;;;8.70;99.90;;;;;;5011458;28;20054;-53
2021/12/14 04:19:50;;;;;;;33.88;19.58;;;8.70;99.90;;;;;;5010088;28;20038;-55
2021/12/14 04:22:21;;;;;;;31.33;20.42;;;8.70;99.90;;;;;;5010903;28;20566;-54
2021/12/14 04:24:51;;;;;;;33.38;20.73;;;8.60;99.90;;;;;;5011551;28;20033;-54
2021/12/14 04:27:21;;;;;;;36.72;21.55;;;8.60;99.90;;;;;;5010947;28;20065;-51
2021/12/14 04:29:48;;;;;;;38.25;21.77;;;8.60;99.90;;;;;;5010389;28;20053;-55
2021/12/14 04:32:15;;;;;;;37.63;20.10;;;8.60;99.90;;;;;;5009851;28;20073;-54
2021/12/14 04:34:42;;;;;;;33.50;19.63;;;8.60;99.90;;;;;;5010213;28;20144;-54
2021/12/14 04:37:09;;;;;;;32.88;19.95;;;8.60;99.90;;;;;;5011885;28;20034;-55
2021/12/14 04:53:45;;;;;;;34.40;19.92;;;8.60;99.90;;;;;;5011453;28;20041;-52
2021/12/14 04:56:15;;;;;;;33.85;19.05;;;8.60;99.90;;;;;;5010756;28;20037;-55
2021/12/14 04:58:46;;;;;;;30.58;19.83;;;8.60;99.90;;;;;;5010272;28;20026;-56
2021/12/14 05:01:14;;;;;;;29.23;17.30;;;8.60;99.90;;;;;;5011175;28;20026;-55
2021/12/14 05:04:03;;;;;;;31.80;18.73;;;8.60;99.90;;;;;;5009694;28;20045;-55
2021/12/14 05:06:46;;;;;;;30.05;18.67;;;8.60;99.90;;;;;;5011156;28;20033;-53
2021/12/14 05:09:22;;;;;;;30.67;17.95;;;8.60;99.90;;;;;;5010525;28;20026;-53
2021/12/14 05:11:55;;;;;;;27.73;17.10;;;8.60;99.90;;;;;;5009733;28;20061;-54
2021/12/14 05:14:23;;;;;;;32.95;17.38;;;8.60;99.90;;;;;;5010794;28;20041;-54
2021/12/14 05:16:58;;;;;;;30.92;17.88;;;8.50;99.90;;;;;;5008753;28;20085;-55
2021/12/14 05:19:26;;;;;;;33.70;17.80;;;8.50;99.90;;;;;;5011004;28;20042;-55
2021/12/14 05:21:58;;;;;;;28.45;17.48;;;8.50;99.90;;;;;;5009537;28;20061;-53
2021/12/14 05:24:25;;;;;;;28.58;17.52;;;8.40;99.90;;;;;;5011064;28;20480;-54
2021/12/14 05:27:01;;;;;;;29.50;17.33;;;8.50;99.90;;;;;;5002861;28;20030;-54
2021/12/14 05:29:28;;;;;;;32.20;17.30;;;8.40;99.90;;;;;;5010875;28;20453;-55
2021/12/14 05:31:55;;;;;;;35.38;18.30;;;8.50;99.90;;;;;;5005517;28;20060;-52
2021/12/14 05:34:23;;;;;;;26.70;17.75;;;8.40;99.90;;;;;;5008636;28;20073;-56
2021/12/14 05:36:49;;;;;;;30.75;18.23;;;8.40;99.90;;;;;;5008920;28;20429;-55
2021/12/14 05:44:16;;;;;;;29.73;17.05;;;8.40;99.90;;;;;;5010671;28;20022;-56
2021/12/14 05:46:50;;;;;;;30.35;18.13;;;8.40;99.90;;;;;;5009570;28;20091;-55
2021/12/14 05:49:20;;;;;;;28.33;16.52;;;8.50;99.90;;;;;;5010718;28;20029;-54
2021/12/14 05:51:48;;;;;;;33.40;17.73;;;8.50;99.90;;;;;;5008557;28;20038;-56
2021/12/14 05:54:25;;;;;;;27.77;16.35;;;8.50;99.90;;;;;;5008978;28;20042;-56
2021/12/14 05:56:52;;;;;;;27.92;16.23;;;8.50;99.90;;;;;;5007760;28;20395;-56
2021/12/14 05:59:21;;;;;;;29.83;17.23;;;8.50;99.90;;;;;;5010028;28;20058;-56
2021/12/14 06:01:47;;;;;;;32.67;18.17;;;8.50;99.90;;;;;;5009018;28;20040;-57
2021/12/14 06:04:13;;;;;;;26.88;17.23;;;8.50;99.90;;;;;;5008676;28;20041;-53
2021/12/14 06:06:52;;;;;;;32.13;17.27;;;8.60;99.90;;;;;;5010388;28;20040;-51
2021/12/14 06:09:23;;;;;;;26.55;15.98;;;8.60;99.90;;;;;;5009678;28;20042;-53
2021/12/14 06:11:54;;;;;;;30.60;17.13;;;8.60;99.90;;;;;;5009474;28;20026;-53
2021/12/14 06:14:23;;;;;;;34.13;16.05;;;8.60;99.90;;;;;;5009168;28;20048;-60
2021/12/14 06:16:53;;;;;;;27.15;17.25;;;8.50;99.90;;;;;;5009423;28;20026;-54
2021/12/14 06:19:40;;;;;;;28.77;16.60;;;8.60;99.90;;;;;;5009380;28;20488;-56
2021/12/14 06:22:15;;;;;;;28.77;17.23;;;8.60;99.90;;;;;;5009398;28;20042;-56
2021/12/14 06:24:44;;;;;;;28.08;17.35;;;8.50;99.90;;;;;;5009092;28;20033;-56
2021/12/14 06:27:14;;;;;;;30.70;18.60;;;8.50;99.90;;;;;;5009668;28;20084;-56
2021/12/14 06:29:42;;;;;;;34.15;19.15;;;8.50;99.90;;;;;;5008601;28;20042;-53
2021/12/14 06:32:27;;;;;;;28.60;18.35;;;8.50;99.90;;;;;;5009322;28;20030;-53
2021/12/14 06:35:06;;;;;;;30.25;17.98;;;8.40;99.90;;;;;;5008170;28;20033;-52
2021/12/14 06:38:08;;;;;;;30.05;18.58;;;8.30;99.90;;;;;;5009122;28;20038;-51
2021/12/14 06:40:46;;;;;;;36.83;19.75;;;8.30;99.90;;;;;;4980631;28;20070;-52
2021/12/14 06:43:19;;;;;;;39.30;20.67;;;8.20;99.90;;;;;;5007913;28;20115;-50
2021/12/14 06:45:59;;;;;;;38.72;19.65;;;8.20;99.90;;;;;;5009453;28;20369;-49
2021/12/14 06:48:38;;;;;;;32.85;19.50;;;8.10;99.90;;;;;;5007609;28;20036;-53
2021/12/14 06:51:09;;;;;;;31.15;19.40;;;8.00;99.90;;;;;;5009156;28;20120;-49
2021/12/14 06:53:36;;;;;;;33.53;20.00;;;8.00;99.90;;;;;;5008132;28;20435;-53
2021/12/14 06:56:07;;;;;;;36.13;20.52;;;8.00;99.90;;;;;;5010290;28;20264;-49
2021/12/14 06:58:38;;;;;;;34.05;20.00;;;8.00;99.90;;;;;;5009619;28;20037;-50
2021/12/14 07:01:24;;;;;;;35.83;21.17;;;8.00;99.90;;;;;;5009692;28;20240;-49
2021/12/14 07:03:57;;;;;;;38.42;20.98;;;8.00;99.90;;;;;;5003957;28;20173;-50
2021/12/14 07:06:42;;;;;;;;;;;8.10;99.90;;;;;;5008509;28;20034;-52
2021/12/14 07:09:11;;;;;;;33.97;20.05;;;8.10;99.90;;;;;;5008232;28;19917;-54
2021/12/14 07:11:40;;;;;;;31.63;20.33;;;8.10;99.90;;;;;;5001502;28;20034;-54
2021/12/14 07:14:35;;;;;;;31.95;20.58;;;8.20;99.90;;;;;;5007062;28;20094;-55
2021/12/14 07:17:04;;;;;;;31.05;20.15;;;8.20;99.90;;;;;;4978494;28;20038;-53
2021/12/14 07:19:55;;;;;;;37.30;20.58;;;8.20;99.90;;;;;;5010436;28;20022;-52
2021/12/14 07:22:33;;;;;;;34.00;21.35;;;8.20;99.90;;;;;;5007733;28;20354;-52
2021/12/14 07:25:01;;;;;;;39.30;22.60;;;8.20;99.90;;;;;;5009186;28;20026;-54
2021/12/14 07:27:30;;;;;;;39.30;21.67;;;8.20;99.90;;;;;;5004623;28;20437;-55
2021/12/14 07:30:35;;;;;;;35.53;20.05;;;8.20;99.90;;;;;;5007957;28;20070;-53
2021/12/14 07:33:09;;;;;;;36.53;20.95;;;8.20;99.90;;;;;;5002082;28;20038;-53
2021/12/14 07:35:40;;;;;;;36.65;21.08;;;8.20;99.90;;;;;;5007788;28;20496;-52
2021/12/14 07:38:18;;;;;;;35.97;20.90;;;8.20;99.90;;;;;;5008956;28;20038;-53
2021/12/14 07:40:47;;;;;;;39.53;22.08;;;8.20;99.90;;;;;;5009073;28;20029;-56
2021/12/14 07:43:29;;;;;;;41.53;23.35;;;8.20;99.90;;;;;;5011074;28;20033;-51
2021/12/14 07:45:56;;;;;;;38.50;22.47;;;8.20;99.90;;;;;;5006388;28;20032;-49
2021/12/14 07:48:45;;;;;;;41.97;23.52;;;8.20;99.90;;;;;;5012294;28;20261;-53
2021/12/14 07:51:11;;;;;;;39.78;22.88;;;8.10;99.90;;;;;;5011702;28;20037;-50
2021/12/14 07:53:45;;;;;;;42.67;24.45;;;8.00;99.90;;;;;;5002405;28;20036;-52
2021/12/14 07:56:29;;;;;;;46.33;24.85;;;8.00;99.90;;;;;;5012176;28;20550;-56
2021/12/14 07:58:57;;;;;;;44.95;23.85;;;7.90;99.90;;;;;;5004845;28;20486;-56
2021/12/14 08:01:22;;;;;;;43.28;24.58;;;7.90;99.90;;;;;;5010782;28;20038;-56
2021/12/14 08:03:58;;;;;;;44.38;24.25;;;7.90;99.90;;;;;;5010193;28;20032;-56
2021/12/14 08:06:24;;;;;;;43.63;24.88;;;7.90;99.90;;;;;;5010138;28;20037;-57
2021/12/14 08:08:54;;;;;;;46.25;24.48;;;7.90;99.90;;;;;;5009947;28;20136;-52
2021/12/14 08:14:15;;;;;;;47.17;23.75;;;7.90;99.90;;;;;;5012242;28;20830;-54
2021/12/14 08:16:57;;;;;;;42.70;23.52;;;7.90;99.90;;;;;;5008382;28;20153;-56
2021/12/14 08:19:30;;;;;;;43.38;22.85;;;8.00;99.90;;;;;;5009050;28;20061;-54
2021/12/14 08:21:56;;;;;;;47.63;24.08;;;8.00;99.90;;;;;;5009423;28;20049;-51
2021/12/14 08:24:22;;;;;;;47.72;23.27;;;8.00;99.90;;;;;;5010506;28;20041;-50
2021/12/14 08:26:55;;;;;;;39.33;23.13;;;8.00;99.90;;;;;;5010850;28;20499;-52
2021/12/14 08:29:30;;;;;;;41.95;23.88;;;8.00;99.90;;;;;;5015630;28;20026;-54
2021/12/14 08:32:09;;;;;;;38.10;21.05;;;8.00;99.90;;;;;;5009297;28;20205;-53
2021/12/14 08:34:39;;;;;;;42.58;24.20;;;8.10;99.90;;;;;;5010197;28;20044;-55
2021/12/14 08:37:14;;;;;;;43.35;23.75;;;8.10;99.90;;;;;;5011077;28;20048;-51
2021/12/14 08:39:56;;;;;;;43.97;24.83;;;8.10;99.90;;;;;;5010562;28;20030;-50
2021/12/14 08:42:32;;;;;;;44.50;24.35;;;8.10;99.90;;;;;;5009303;28;20365;-50
2021/12/14 08:45:00;;;;;;;42.92;25.08;;;8.20;99.90;;;;;;5008815;28;20480;-51
2021/12/14 08:47:34;;;;;;;48.33;24.23;;;8.10;99.90;;;;;;5010526;28;20053;-49
2021/12/14 08:50:05;;;;;;;50.47;27.42;;;8.10;99.90;;;;;;5004686;28;20165;-49
2021/12/14 08:52:31;;;;;;;53.47;28.35;;;8.10;99.90;;;;;;5010264;28;20042;-50
2021/12/14 08:54:59;;;;;;;48.60;25.38;;;8.10;99.90;;;;;;5008429;28;20036;-50
2021/12/14 08:57:26;;;;;;;47.78;26.90;;;8.00;99.90;;;;;;5010848;28;20030;-50
2021/12/14 08:59:56;;;;;;;43.70;24.70;;;8.00;99.90;;;;;;5009985;28;20491;-49
2021/12/14 09:02:24;;;;;;;51.60;26.00;;;8.00;99.90;;;;;;5009518;28;20107;-52
2021/12/14 09:04:58;;;;;;;47.17;26.75;;;8.00;99.90;;;;;;5016038;28;20472;-53
2021/12/14 09:07:29;;;;;;;46.65;25.10;;;8.00;99.90;;;;;;5009914;28;20026;-53
2021/12/14 09:09:56;;;;;;;50.45;27.30;;;8.00;99.90;;;;;;5010777;28;20037;-56
2021/12/14 09:12:30;;;;;;;52.50;28.35;;;8.10;99.90;;;;;;5005345;28;20034;-60
2021/12/14 09:15:07;;;;;;;48.92;26.02;;;8.00;99.90;;;;;;5010360;28;20040;-59
2021/12/14 09:17:33;;;;;;;56.03;28.88;;;8.00;99.90;;;;;;5005508;28;20022;-59
2021/12/14 09:20:11;;;;;;;56.58;28.08;;;8.00;99.90;;;;;;5005047;28;20563;-63
2021/12/14 09:22:42;;;;;;;55.55;27.45;;;8.00;99.90;;;;;;5009144;28;20123;-60
2021/12/14 09:25:13;;;;;;;58.58;29.85;;;8.00;99.90;;;;;;5010934;28;20014;-60
2021/12/14 09:27:41;;;;;;;59.17;27.90;;;8.00;99.90;;;;;;5009476;28;20042;-60
2021/12/14 09:30:09;;;;;;;55.42;27.67;;;8.00;99.90;;;;;;5010664;28;20038;-58
2021/12/14 09:32:36;;;;;;;57.40;28.23;;;8.00;99.90;;;;;;5008248;28;20038;-58
2021/12/14 09:35:08;;;;;;;52.58;27.73;;;8.00;99.90;;;;;;5009782;28;20095;-60
2021/12/14 09:37:34;;;;;;;59.85;28.30;;;8.10;99.90;;;;;;5009635;28;20045;-59
2021/12/14 09:40:08;;;;;;;51.92;27.20;;;8.10;99.90;;;;;;5007901;28;20487;-59
2021/12/14 09:42:35;;;;;;;53.75;27.48;;;8.10;99.90;;;;;;5009903;28;20451;-61
2021/12/14 09:45:10;;;;;;;51.55;26.45;;;8.20;99.90;;;;;;5008742;28;20056;-57
2021/12/14 09:47:36;;;;;;;52.80;27.88;;;8.30;99.90;;;;;;5001801;28;20562;-55
2021/12/14 09:50:11;;;;;;;54.33;26.92;;;8.20;99.90;;;;;;5007799;28;20107;-58
2021/12/14 09:52:39;;;;;;;52.60;27.05;;;8.20;99.90;;;;;;5002007;28;20392;-56
2021/12/14 09:55:10;;;;;;;55.38;25.75;;;8.20;99.90;;;;;;5008639;28;20532;-58
2021/12/14 09:57:42;;;;;;;57.33;27.17;;;8.20;99.90;;;;;;4990418;28;20349;-61
2021/12/14 10:00:16;;;;;;;64.63;27.45;;;8.20;99.90;;;;;;5008316;28;20030;-61
2021/12/14 10:02:45;;;;;;;50.08;23.63;;;8.20;99.90;;;;;;4988936;28;20088;-62
2021/12/14 10:05:17;;;;;;;56.17;25.92;;;8.20;99.90;;;;;;5008208;28;20034;-59
2021/12/14 10:07:43;;;;;;;55.55;26.23;;;8.30;99.90;;;;;;5008803;28;20037;-60
2021/12/14 10:10:14;;;;;;;53.70;28.08;;;8.30;99.90;;;;;;5009713;28;20034;-64
2021/12/14 10:12:51;;;;;;;54.30;26.27;;;8.20;99.90;;;;;;5008491;28;20026;-63
2021/12/14 10:15:20;;;;;;;56.05;27.85;;;8.20;99.90;;;;;;5010128;28;20406;-64
2021/12/14 10:17:46;;;;;;;56.10;27.58;;;8.20;99.90;;;;;;5008375;28;20618;-64
2021/12/14 10:20:18;;;;;;;55.55;28.15;;;8.20;99.90;;;;;;5009670;28;20030;-65
2021/12/14 10:22:45;;;;;;;61.78;28.73;;;8.20;99.90;;;;;;5000081;28;20031;-64
2021/12/14 10:25:16;;;;;;;63.70;29.85;;;8.20;99.90;;;;;;5005268;28;20068;-67
2021/12/14 10:27:42;;;;;;;63.40;29.90;;;8.20;99.90;;;;;;5009586;28;20125;-66
2021/12/14 10:30:20;;;;;;;60.58;29.92;;;8.20;99.90;;;;;;5010783;28;20116;-67
2021/12/14 10:32:48;;;;;;;59.50;29.23;;;8.20;99.90;;;;;;5009732;28;20041;-66
2021/12/14 10:35:21;;;;;;;69.63;31.23;;;8.20;99.90;;;;;;5012360;28;20049;-68
2021/12/14 10:38:08;;;;;;;61.28;29.75;;;8.30;99.90;;;;;;5005908;28;20517;-66
2021/12/14 10:43:25;;;;;;;60.60;29.02;;;8.30;99.90;;;;;;5012602;28;20071;-65
2021/12/14 10:45:55;;;;;;;60.47;30.23;;;8.20;99.90;;;;;;5005717;28;20030;-62
2021/12/14 10:48:25;;;;;;;59.17;29.60;;;8.30;99.90;;;;;;5006653;28;20033;-62
2021/12/14 10:50:52;;;;;;;63.83;30.45;;;8.30;99.90;;;;;;5006801;28;20038;-61
2021/12/14 10:53:20;;;;;;;59.47;29.98;;;8.20;99.90;;;;;;5012279;28;20057;-63
2021/12/14 10:55:53;;;;;;;56.80;30.08;;;8.30;99.90;;;;;;5006086;28;20038;-63
2021/12/14 10:58:22;;;;;;;61.20;29.73;;;8.30;99.90;;;;;;5005118;28;20412;-60
2021/12/14 11:01:01;;;;;;;58.88;29.73;;;8.30;99.90;;;;;;5008485;28;20404;-64
2021/12/14 11:03:34;;;;;;;59.60;29.80;;;8.30;99.90;;;;;;5007705;28;20037;-61
2021/12/14 11:06:03;;;;;;;58.10;29.67;;;8.30;99.90;;;;;;5008569;28;20022;-61
2021/12/14 11:08:38;;;;;;;59.63;28.10;;;8.30;99.90;;;;;;5007855;28;20034;-61
2021/12/14 11:11:35;;;;;;;58.30;28.23;;;8.20;99.90;;;;;;5007009;28;20056;-61
2021/12/14 11:14:06;;;;;;;59.60;30.23;;;8.20;99.90;;;;;;5003412;28;20044;-61
2021/12/14 11:19:40;;;;;;;67.55;30.77;;;8.20;99.90;;;;;;5012875;28;20562;-62
2021/12/14 11:22:21;;;;;;;65.80;29.95;;;8.20;99.90;;;;;;5008385;28;20400;-61
2021/12/14 11:24:54;;;;;;;66.07;30.23;;;8.30;99.90;;;;;;5011724;28;20050;-58
2021/12/14 11:27:28;;;;;;;54.38;27.17;;;8.30;99.90;;;;;;5012230;28;20084;-59
2021/12/14 11:30:26;;;;;;;61.40;30.35;;;8.30;99.90;;;;;;5012221;28;20026;-63
2021/12/14 11:33:07;;;;;;;56.55;28.55;;;8.30;99.90;;;;;;5008658;28;20026;-61
2021/12/14 11:35:37;;;;;;;57.67;28.05;;;8.30;99.90;;;;;;5012361;28;20041;-59
2021/12/14 11:38:10;;;;;;;59.67;28.08;;;8.30;99.90;;;;;;5011373;28;20030;-62
2021/12/14 11:40:36;;;;;;;61.58;29.55;;;8.40;99.90;;;;;;5012331;28;20038;-62
2021/12/14 11:43:15;;;;;;;56.85;27.50;;;8.40;99.90;;;;;;5010203;28;20021;-62
2021/12/14 11:45:42;;;;;;;58.03;27.73;;;8.40;99.90;;;;;;4999022;28;20030;-62
2021/12/14 11:48:08;;;;;;;59.20;27.95;;;8.40;99.90;;;;;;5004374;28;20160;-59
2021/12/14 11:50:39;;;;;;;56.58;28.50;;;8.40;99.90;;;;;;5008880;28;20447;-57
2021/12/14 11:53:09;;;;;;;63.92;28.83;;;8.50;99.90;;;;;;5007559;28;20495;-62
2021/12/14 11:55:43;;;;;;;59.35;27.92;;;8.50;99.90;;;;;;5011666;28;20101;-61
2021/12/14 11:58:36;;;;;;;52.08;26.98;;;8.50;99.90;;;;;;5011135;28;20032;-56
2021/12/14 12:01:17;;;;;;;52.58;25.55;;;8.50;99.90;;;;;;5007245;28;20436;-59
2021/12/14 12:03:51;;;;;;;51.88;25.77;;;8.50;99.90;;;;;;5006102;28;20041;-55
2021/12/14 12:09:28;;;;;;;52.22;26.35;;;8.50;99.90;;;;;;5011061;28;20084;-59
2021/12/14 12:12:03;;;;;;;55.60;26.67;;;8.60;99.90;;;;;;5005397;28;20088;-58
2021/12/14 12:14:56;;;;;;;58.60;26.17;;;8.60;99.90;;;;;;5010814;28;20458;-60
2021/12/14 12:17:25;;;;;;;;;;;8.60;99.90;;;;;;5011077;28;20045;-58
2021/12/14 12:20:02;;;;;;;49.55;24.40;;;8.60;99.90;;;;;;5010039;28;20369;-60
2021/12/14 12:22:36;;;;;;;55.88;26.13;;;8.60;99.90;;;;;;5008945;28;20077;-57
2021/12/14 12:25:25;;;;;;;53.33;26.50;;;8.60;99.90;;;;;;5008689;28;20025;-53
2021/12/14 12:27:58;;;;;;;56.33;26.73;;;8.50;99.90;;;;;;5009566;28;20149;-59
2021/12/14 12:30:36;;;;;;;59.30;26.60;;;8.60;99.90;;;;;;5011014;28;20029;-58
2021/12/14 12:33:08;;;;;;;52.70;25.58;;;8.60;99.90;;;;;;5006445;28;20506;-54
2021/12/14 12:35:55;;;;;;;49.13;23.52;;;8.60;99.90;;;;;;5008732;28;20037;-60
2021/12/14 12:38:26;;;;;;;52.90;24.77;;;8.60;99.90;;;;;;5009831;28;20042;-60
2021/12/14 12:41:17;;;;;;;51.45;24.23;;;8.60;99.90;;;;;;5010530;28;20064;-58
2021/12/14 12:43:51;;;;;;;49.72;23.15;;;8.60;99.90;;;;;;5009326;28;20022;-56
2021/12/14 12:46:24;;;;;;;43.70;22.80;;;8.60;99.90;;;;;;5010806;28;20029;-56
2021/12/14 12:49:07;;;;;;;43.85;21.80;;;8.60;99.90;;;;;;5009737;28;20121;-58
2021/12/14 12:51:57;;;;;;;50.00;21.52;;;8.60;99.90;;;;;;5010217;28;20057;-59
2021/12/14 12:54:41;;;;;;;40.38;20.98;;;8.60;99.90;;;;;;5005370;28;20036;-57
2021/12/14 12:57:22;;;;;;;35.42;20.73;;;8.60;99.90;;;;;;5006085;28;20026;-59
2021/12/14 13:00:18;;;;;;;38.15;19.00;;;8.60;99.90;;;;;;5003866;28;20164;-57
2021/12/14 13:02:58;;;;;;;41.63;19.73;;;8.60;99.90;;;;;;5007361;28;20034;-57
2021/12/14 13:05:37;;;;;;;40.80;19.88;;;8.60;99.90;;;;;;5010752;28;20026;-55
2021/12/14 13:08:08;;;;;;;38.28;18.75;;;8.60;99.90;;;;;;5010316;28;20381;-55
2021/12/14 13:10:42;;;;;;;40.67;21.52;;;8.60;99.90;;;;;;4991340;28;20590;-54
2021/12/14 13:13:16;;;;;;;39.78;20.10;;;8.60;99.90;;;;;;4990587;28;20121;-59
2021/12/14 13:15:54;;;;;;;38.70;19.42;;;8.70;99.90;;;;;;5004302;28;20033;-56
2021/12/14 13:18:26;;;;;;;44.50;21.60;;;8.70;99.90;;;;;;5009855;28;20395;-53
2021/12/14 13:20:56;;;;;;;38.17;20.75;;;8.70;99.90;;;;;;5009965;28;20029;-57
2021/12/14 13:23:41;;;;;;;35.83;19.05;;;8.70;99.90;;;;;;5009225;28;20049;-56
2021/12/14 13:26:24;;;;;;;34.85;19.25;;;8.60;99.90;;;;;;5009263;28;20029;-54
2021/12/14 13:28:53;;;;;;;36.47;18.52;;;8.70;99.90;;;;;;5004160;28;20032;-55
2021/12/14 13:31:37;;;;;;;44.05;20.17;;;8.70;99.90;;;;;;5008781;28;20049;-53
2021/12/14 13:34:06;;;;;;;36.08;19.42;;;8.70;99.90;;;;;;4989958;28;20069;-53
2021/12/14 13:36:32;;;;;;;35.83;20.35;;;8.60;99.90;;;;;;5001847;28;20128;-55
2021/12/14 13:38:58;;;;;;;37.42;19.38;;;8.70;99.90;;;;;;5008813;28;20133;-53
2021/12/14 13:41:47;;;;;;;37.08;19.70;;;8.70;99.90;;;;;;5010236;28;20026;-57
2021/12/14 13:44:14;;;;;;;34.75;19.55;;;8.70;99.90;;;;;;5006599;28;20034;-52
2021/12/14 13:46:40;;;;;;;36.95;19.75;;;8.70;99.90;;;;;;5009110;28;20029;-56